createdAt,value
2024-05-09T00:01:35.951Z,9
2024-05-09T00:03:35.870Z,8
2024-05-09T00:05:36.546Z,9
2024-05-09T00:07:36.122Z,10
2024-05-09T00:09:35.832Z,8
2024-05-09T00:11:36.037Z,10
2024-05-09T00:13:35.832Z,7
2024-05-09T00:15:36.670Z,10
2024-05-09T00:17:35.974Z,9
2024-05-09T00:19:35.936Z,8
2024-05-09T00:21:35.903Z,8
2024-05-09T00:23:35.923Z,6
2024-05-09T00:25:35.872Z,9
2024-05-09T00:27:35.903Z,12
2024-05-09T00:29:35.921Z,7
2024-05-09T00:31:35.933Z,10
2024-05-09T00:33:36.011Z,9
2024-05-09T00:35:36.061Z,8
2024-05-09T00:37:35.829Z,10
2024-05-09T00:39:35.933Z,7
2024-05-09T00:41:35.989Z,9
2024-05-09T00:43:35.826Z,10
2024-05-09T00:45:36.095Z,11
2024-05-09T00:47:36.455Z,9
2024-05-09T00:49:36.017Z,8
2024-05-09T00:51:35.993Z,9
2024-05-09T00:53:35.947Z,11
2024-05-09T00:55:37.272Z,11
2024-05-09T00:57:35.955Z,9
2024-05-09T00:59:35.919Z,7
2024-05-09T01:01:36.331Z,11
2024-05-09T01:03:36.070Z,9
2024-05-09T01:05:37.484Z,8
2024-05-09T01:07:36.009Z,11
2024-05-09T01:09:35.930Z,9
2024-05-09T01:11:40.428Z,11
2024-05-09T01:13:35.807Z,10
2024-05-09T01:15:36.138Z,9
2024-05-09T01:17:35.973Z,10
2024-05-09T01:19:36.550Z,10
2024-05-09T01:21:39.652Z,9
2024-05-09T01:23:35.901Z,12
2024-05-09T01:25:35.866Z,10
2024-05-09T01:27:35.948Z,9
2024-05-09T01:29:35.938Z,11
2024-05-09T01:31:35.860Z,8
2024-05-09T01:33:36.004Z,10
2024-05-09T01:35:35.967Z,8
2024-05-09T01:37:35.908Z,9
2024-05-09T01:39:35.933Z,11
2024-05-09T01:41:35.784Z,10
2024-05-09T01:43:35.909Z,8
2024-05-09T01:45:35.876Z,9
2024-05-09T01:47:36.048Z,11
2024-05-09T01:49:37.240Z,10
2024-05-09T01:51:35.746Z,10
2024-05-09T01:53:36.274Z,10
2024-05-09T01:55:35.799Z,12
2024-05-09T01:57:35.787Z,9
2024-05-09T01:59:35.949Z,12
2024-05-09T02:01:55.619Z,11
2024-05-09T02:03:35.900Z,9
2024-05-09T02:05:35.914Z,10
2024-05-09T02:07:35.908Z,11
2024-05-09T02:09:35.790Z,10
2024-05-09T02:11:40.603Z,10
2024-05-09T02:13:35.814Z,8
2024-05-09T02:15:35.853Z,9
2024-05-09T02:17:35.806Z,9
2024-05-09T02:19:35.892Z,9
2024-05-09T02:21:35.739Z,11
2024-05-09T02:23:35.864Z,9
2024-05-09T02:25:35.847Z,9
2024-05-09T02:27:35.771Z,9
2024-05-09T02:29:35.898Z,11
2024-05-09T02:31:35.829Z,8
2024-05-09T02:33:36.194Z,10
2024-05-09T02:35:36.001Z,11
2024-05-09T02:37:35.754Z,8
2024-05-09T02:39:35.868Z,11
2024-05-09T02:41:35.935Z,9
2024-05-09T02:43:35.742Z,10
2024-05-09T02:45:35.753Z,10
2024-05-09T02:47:35.943Z,9
2024-05-09T02:49:35.849Z,10
2024-05-09T02:51:35.905Z,9
2024-05-09T02:53:57.906Z,9
2024-05-09T02:55:57.236Z,11
2024-05-09T02:57:57.257Z,10
2024-05-09T02:59:57.315Z,10
2024-05-09T03:01:57.277Z,10
2024-05-09T03:03:57.591Z,5
2024-05-09T03:05:57.239Z,9
2024-05-09T03:07:57.258Z,7
2024-05-09T03:09:57.240Z,3
2024-05-09T03:11:57.289Z,9
2024-05-09T03:13:57.362Z,9
2024-05-09T03:15:59.132Z,9
2024-05-09T03:17:57.426Z,9
2024-05-09T03:19:57.313Z,10
2024-05-09T03:21:58.601Z,10
2024-05-09T03:23:57.221Z,8
2024-05-09T03:25:57.250Z,8
2024-05-09T03:27:57.232Z,10
2024-05-09T03:29:57.213Z,10
2024-05-09T03:31:57.377Z,8
2024-05-09T03:33:57.354Z,8
2024-05-09T03:35:57.193Z,9
2024-05-09T03:37:57.187Z,8
2024-05-09T03:39:57.141Z,10
2024-05-09T03:41:57.306Z,10
2024-05-09T03:43:57.314Z,9
2024-05-09T03:45:57.615Z,9
2024-05-09T03:47:57.577Z,8
2024-05-09T03:49:57.313Z,10
2024-05-09T03:51:57.269Z,10
2024-05-09T03:53:57.276Z,10
2024-05-09T03:55:57.210Z,9
2024-05-09T03:57:57.350Z,8
2024-05-09T03:59:57.272Z,9
2024-05-09T04:01:57.461Z,11
2024-05-09T04:03:57.277Z,9
2024-05-09T04:05:57.301Z,9
2024-05-09T04:06:34.421Z,9
2024-05-09T04:08:04.896Z,8
2024-05-09T04:10:06.820Z,9
2024-05-09T04:12:06.243Z,11
2024-05-09T04:14:04.382Z,7
2024-05-09T04:16:04.614Z,10
2024-05-09T04:18:04.784Z,8
2024-05-09T04:20:06.556Z,9
2024-05-09T04:22:04.518Z,9
2024-05-09T04:24:04.594Z,9
2024-05-09T04:26:04.743Z,12
2024-05-09T04:28:04.658Z,8
2024-05-09T04:30:06.226Z,9
2024-05-09T04:32:04.782Z,10
2024-05-09T04:34:04.742Z,9
2024-05-09T04:36:04.607Z,11
2024-05-09T04:38:04.918Z,8
2024-05-09T04:40:06.914Z,9
2024-05-09T04:42:04.721Z,10
2024-05-09T04:44:04.620Z,7
2024-05-09T04:46:04.479Z,7
2024-05-09T04:48:04.988Z,10
2024-05-09T04:50:08.809Z,9
2024-05-09T04:52:04.546Z,8
2024-05-09T04:54:04.533Z,10
2024-05-09T04:56:04.666Z,8
2024-05-09T04:58:04.621Z,9
2024-05-09T05:00:09.334Z,8
2024-05-09T05:02:04.803Z,8
2024-05-09T05:04:04.821Z,8
2024-05-09T05:06:04.537Z,8
2024-05-09T05:08:04.808Z,8
2024-05-09T05:10:05.918Z,9
2024-05-09T05:12:04.704Z,9
2024-05-09T05:14:04.542Z,7
2024-05-09T05:16:04.621Z,8
2024-05-09T05:18:04.880Z,7
2024-05-09T05:20:05.878Z,9
2024-05-09T05:22:04.467Z,9
2024-05-09T05:24:04.695Z,7
2024-05-09T05:26:04.808Z,10
2024-05-09T05:28:04.705Z,7
2024-05-09T05:30:07.431Z,8
2024-05-09T05:32:04.636Z,9
2024-05-09T05:34:04.341Z,9
2024-05-09T05:36:04.654Z,7
2024-05-09T05:38:04.633Z,8
2024-05-09T05:40:05.738Z,8
2024-05-09T05:42:04.557Z,7
2024-05-09T05:44:04.540Z,9
2024-05-09T05:46:04.441Z,8
2024-05-09T05:48:05.757Z,8
2024-05-09T05:50:07.098Z,8
2024-05-09T05:52:04.684Z,7
2024-05-09T05:54:04.310Z,8
2024-05-09T05:56:04.607Z,7
2024-05-09T05:58:05.131Z,7
2024-05-09T06:00:09.224Z,7
2024-05-09T06:01:12.765Z,8
2024-05-09T06:02:46.705Z,8
2024-05-09T06:04:46.637Z,9
2024-05-09T06:06:46.471Z,9
2024-05-09T06:08:46.459Z,6
2024-05-09T06:10:46.514Z,7
2024-05-09T06:12:46.463Z,5
2024-05-09T06:14:46.335Z,5
2024-05-09T06:16:46.407Z,8
2024-05-09T06:18:46.636Z,9
2024-05-09T06:20:46.451Z,8
2024-05-09T06:22:46.538Z,6
2024-05-09T06:24:46.481Z,8
2024-05-09T06:26:46.462Z,7
2024-05-09T06:28:46.470Z,5
2024-05-09T06:30:46.363Z,8
2024-05-09T06:32:46.745Z,7
2024-05-09T06:34:46.687Z,10
2024-05-09T06:36:46.397Z,9
2024-05-09T06:38:46.521Z,9
2024-05-09T06:40:46.541Z,7
2024-05-09T06:42:46.473Z,6
2024-05-09T06:44:46.428Z,7
2024-05-09T06:46:46.429Z,8
2024-05-09T06:48:46.822Z,7
2024-05-09T06:50:46.552Z,8
2024-05-09T06:52:46.531Z,5
2024-05-09T06:54:46.437Z,5
2024-05-09T06:56:46.474Z,5
2024-05-09T06:58:46.460Z,7
2024-05-09T07:00:46.455Z,6
2024-05-09T07:02:46.974Z,6
2024-05-09T07:04:46.702Z,7
2024-05-09T07:06:46.510Z,6
2024-05-09T07:08:48.010Z,6
2024-05-09T07:10:46.573Z,6
2024-05-09T07:12:46.351Z,5
2024-05-09T07:14:46.358Z,5
2024-05-09T07:16:46.603Z,5
2024-05-09T07:18:46.687Z,5
2024-05-09T07:20:46.868Z,6
2024-05-09T07:22:46.413Z,5
2024-05-09T07:24:46.306Z,5
2024-05-09T07:26:46.394Z,6
2024-05-09T07:28:46.480Z,4
2024-05-09T07:30:46.810Z,2
2024-05-09T07:32:46.888Z,7
2024-05-09T07:34:46.578Z,5
2024-05-09T07:36:46.560Z,5
2024-05-09T07:38:46.538Z,4
2024-05-09T07:40:46.495Z,6
2024-05-09T07:42:46.507Z,6
2024-05-09T07:44:46.442Z,5
2024-05-09T07:47:48.573Z,4
2024-05-09T07:53:34.579Z,7
2024-05-09T07:54:47.526Z,7
2024-05-09T07:56:46.790Z,6
2024-05-09T07:58:46.626Z,5
2024-05-09T08:00:46.470Z,4
2024-05-09T08:02:46.329Z,5
2024-05-09T08:04:46.678Z,6
2024-05-09T08:06:46.475Z,5
2024-05-09T08:08:46.390Z,6
2024-05-09T08:10:46.561Z,5
2024-05-09T08:12:46.506Z,5
2024-05-09T08:14:46.417Z,4
2024-05-09T08:16:46.374Z,5
2024-05-09T08:20:47.721Z,5
2024-05-09T08:22:46.390Z,6
2024-05-09T08:24:46.341Z,6
2024-05-09T08:26:46.336Z,6
2024-05-09T08:28:46.448Z,4
2024-05-09T08:30:46.529Z,4
2024-05-09T08:32:46.396Z,5
2024-05-09T08:34:46.453Z,5
2024-05-09T08:36:46.404Z,5
2024-05-09T08:38:46.405Z,3
2024-05-09T08:40:46.862Z,4
2024-05-09T08:42:48.500Z,5
2024-05-09T08:44:48.074Z,5
2024-05-09T08:46:47.005Z,6
2024-05-09T08:48:47.918Z,3
2024-05-09T08:50:47.485Z,5
2024-05-09T08:52:46.503Z,5
2024-05-09T08:54:46.477Z,3
2024-05-09T08:56:47.884Z,5
2024-05-09T08:58:47.840Z,4
2024-05-09T09:00:47.071Z,4
2024-05-09T09:02:48.516Z,1
2024-05-09T09:04:47.762Z,3
2024-05-09T09:06:46.493Z,4
2024-05-09T09:08:47.384Z,4
2024-05-09T09:10:47.244Z,3
2024-05-09T09:12:53.832Z,3
2024-05-09T09:14:46.388Z,3
2024-05-09T09:16:46.359Z,3
2024-05-09T09:18:47.579Z,5
2024-05-09T09:20:46.465Z,2
2024-05-09T09:22:46.298Z,3
2024-05-09T09:24:46.501Z,3
2024-05-09T09:26:48.438Z,2
2024-05-09T09:28:46.763Z,3
2024-05-09T09:30:46.392Z,3
2024-05-09T09:32:48.546Z,4
2024-05-09T09:34:47.380Z,4
2024-05-09T09:36:47.789Z,4
2024-05-09T09:38:46.671Z,5
2024-05-09T09:40:49.425Z,5
2024-05-09T09:42:48.016Z,5
2024-05-09T09:44:54.636Z,5
2024-05-09T09:46:47.142Z,4
2024-05-09T09:48:46.963Z,2
2024-05-09T09:50:47.057Z,5
2024-05-09T09:52:46.397Z,4
2024-05-09T09:54:48.114Z,1
2024-05-09T09:56:46.724Z,4
2024-05-09T09:58:46.430Z,5
2024-05-09T10:00:46.470Z,4
2024-05-09T10:02:46.457Z,5
2024-05-09T10:04:46.419Z,5
2024-05-09T10:06:49.128Z,4
2024-05-09T10:08:47.390Z,5
2024-05-09T10:10:46.836Z,4
2024-05-09T10:12:56.541Z,5
2024-05-09T10:14:49.652Z,4
2024-05-09T10:16:49.458Z,5
2024-05-09T10:18:46.520Z,5
2024-05-09T10:20:46.599Z,5
2024-05-09T10:22:50.169Z,7
2024-05-09T10:24:53.063Z,8
2024-05-09T10:26:51.152Z,5
2024-05-09T10:28:46.383Z,5
2024-05-09T10:30:47.963Z,6
2024-05-09T10:32:46.469Z,5
2024-05-09T10:34:56.363Z,6
2024-05-09T10:36:46.426Z,6
2024-05-09T10:38:46.301Z,5
2024-05-09T10:40:46.468Z,6
2024-05-09T10:42:46.443Z,5
2024-05-09T10:44:46.858Z,5
2024-05-09T10:46:46.327Z,6
2024-05-09T10:48:46.740Z,6
2024-05-09T10:50:46.344Z,5
2024-05-09T10:52:46.332Z,4
2024-05-09T10:54:48.392Z,6
2024-05-09T10:56:46.318Z,5
2024-05-09T10:58:46.296Z,5
2024-05-09T11:00:46.402Z,5
2024-05-09T11:02:47.337Z,5
2024-05-09T11:04:46.425Z,5
2024-05-09T11:06:46.626Z,6
2024-05-09T11:08:46.582Z,6
2024-05-09T11:10:46.657Z,6
2024-05-09T11:12:47.424Z,6
2024-05-09T11:14:56.057Z,5
2024-05-09T11:16:46.310Z,2
2024-05-09T11:18:52.379Z,7
2024-05-09T11:20:46.417Z,6
2024-05-09T11:22:46.366Z,7
2024-05-09T11:24:46.305Z,5
2024-05-09T11:26:46.971Z,6
2024-05-09T11:28:47.556Z,6
2024-05-09T11:30:46.512Z,6
2024-05-09T11:32:46.689Z,5
2024-05-09T11:34:46.244Z,5
2024-05-09T11:36:46.413Z,6
2024-05-09T11:38:46.375Z,7
2024-05-09T11:40:46.406Z,6
2024-05-09T11:42:47.239Z,7
2024-05-09T11:44:46.297Z,7
2024-05-09T11:46:46.537Z,8
2024-05-09T11:48:46.493Z,6
2024-05-09T11:50:46.374Z,7
2024-05-09T11:52:46.386Z,4
2024-05-09T11:54:46.268Z,7
2024-05-09T11:56:46.354Z,5
2024-05-09T11:58:46.341Z,6
2024-05-09T12:00:46.879Z,7
2024-05-09T12:02:46.253Z,7
2024-05-09T12:04:46.301Z,7
2024-05-09T12:06:46.468Z,7
2024-05-09T12:08:46.356Z,6
2024-05-09T12:10:46.551Z,6
2024-05-09T12:12:46.312Z,7
2024-05-09T12:14:46.323Z,6
2024-05-09T12:16:46.455Z,5
2024-05-09T12:18:46.281Z,6
2024-05-09T12:20:46.611Z,5
2024-05-09T12:22:46.290Z,7
2024-05-09T12:24:46.264Z,7
2024-05-09T12:26:46.461Z,4
2024-05-09T12:28:46.333Z,6
2024-05-09T12:30:46.318Z,6
2024-05-09T12:32:46.538Z,5
2024-05-09T12:34:46.350Z,6
2024-05-09T12:36:46.257Z,6
2024-05-09T12:38:46.284Z,7
2024-05-09T12:40:46.440Z,6
2024-05-09T12:42:46.275Z,7
2024-05-09T12:44:46.233Z,8
2024-05-09T12:46:46.355Z,6
2024-05-09T12:48:46.433Z,7
2024-05-09T12:50:46.450Z,5
2024-05-09T12:52:46.209Z,6
2024-05-09T12:54:46.276Z,5
2024-05-09T12:56:46.382Z,6
2024-05-09T12:58:46.328Z,6
2024-05-09T13:00:46.821Z,5
2024-05-09T13:02:46.271Z,6
2024-05-09T13:04:46.341Z,6
2024-05-09T13:06:46.362Z,7
2024-05-09T13:08:46.286Z,7
2024-05-09T13:10:46.595Z,7
2024-05-09T13:12:46.316Z,6
2024-05-09T13:14:46.155Z,7
2024-05-09T13:16:46.307Z,7
2024-05-09T13:18:46.275Z,8
2024-05-09T13:20:46.179Z,7
2024-05-09T13:22:46.271Z,8
2024-05-09T13:24:46.287Z,7
2024-05-09T13:26:46.329Z,5
2024-05-09T13:28:46.221Z,5
2024-05-09T13:30:46.297Z,4
2024-05-09T13:32:46.293Z,7
2024-05-09T13:34:46.323Z,8
2024-05-09T13:36:46.285Z,7
2024-05-09T13:38:46.197Z,7
2024-05-09T13:40:46.369Z,7
2024-05-09T13:42:48.686Z,7
2024-05-09T13:44:46.224Z,7
2024-05-09T13:46:46.326Z,11
2024-05-09T13:48:46.404Z,6
2024-05-09T13:50:46.182Z,8
2024-05-09T13:52:46.340Z,7
2024-05-09T13:54:46.288Z,9
2024-05-09T13:56:46.194Z,6
2024-05-09T13:58:46.204Z,6
2024-05-09T14:00:48.697Z,10
2024-05-09T14:02:46.150Z,6
2024-05-09T14:04:46.381Z,9
2024-05-09T14:06:46.375Z,7
2024-05-09T14:08:46.231Z,7
2024-05-09T14:10:46.613Z,7
2024-05-09T14:12:46.335Z,9
2024-05-09T14:14:46.198Z,7
2024-05-09T14:16:46.301Z,6
2024-05-09T14:18:46.292Z,6
2024-05-09T14:20:46.197Z,4
2024-05-09T14:22:46.235Z,5
2024-05-09T14:24:46.290Z,4
2024-05-09T14:26:46.162Z,5
2024-05-09T14:28:46.205Z,5
2024-05-09T14:30:46.229Z,5
2024-05-09T14:32:46.289Z,7
2024-05-09T14:34:46.366Z,6
2024-05-09T14:36:46.200Z,7
2024-05-09T14:38:46.147Z,3
2024-05-09T14:40:46.250Z,8
2024-05-09T14:42:46.384Z,4
2024-05-09T14:44:46.249Z,7
2024-05-09T14:46:46.320Z,4
2024-05-09T14:48:46.296Z,7
2024-05-09T14:50:46.277Z,4
2024-05-09T14:52:46.177Z,9
2024-05-09T14:54:46.792Z,9
2024-05-09T14:56:46.286Z,8
2024-05-09T14:58:46.236Z,7
2024-05-09T15:00:50.028Z,7
2024-05-09T15:02:46.620Z,8
2024-05-09T15:04:46.367Z,9
2024-05-09T15:06:46.198Z,6
2024-05-09T15:08:53.406Z,7
2024-05-09T15:10:46.810Z,7
2024-05-09T15:12:46.212Z,8
2024-05-09T15:14:46.086Z,10
2024-05-09T15:16:46.136Z,9
2024-05-09T15:18:46.415Z,7
2024-05-09T15:20:47.024Z,5
2024-05-09T15:22:46.175Z,8
2024-05-09T15:24:46.278Z,8
2024-05-09T15:26:46.136Z,8
2024-05-09T15:28:46.155Z,7
2024-05-09T15:30:46.945Z,8
2024-05-09T15:32:46.187Z,7
2024-05-09T15:34:46.279Z,8
2024-05-09T15:36:46.313Z,7
2024-05-09T15:38:46.175Z,8
2024-05-09T15:40:46.439Z,7
2024-05-09T15:42:46.293Z,7
2024-05-09T15:44:46.128Z,7
2024-05-09T15:46:46.155Z,6
2024-05-09T15:48:46.290Z,7
2024-05-09T15:50:46.237Z,7
2024-05-09T15:52:46.253Z,7
2024-05-09T15:54:46.207Z,7
2024-05-09T15:56:46.149Z,6
2024-05-09T15:58:46.293Z,7
2024-05-09T16:00:48.053Z,7
2024-05-09T16:02:46.479Z,7
2024-05-09T16:04:46.350Z,9
2024-05-09T16:06:46.172Z,7
2024-05-09T16:08:46.074Z,9
2024-05-09T16:10:47.042Z,7
2024-05-09T16:12:46.206Z,6
2024-05-09T16:14:46.165Z,6
2024-05-09T16:16:46.602Z,6
2024-05-09T16:18:46.146Z,7
2024-05-09T16:20:48.538Z,9
2024-05-09T16:22:46.105Z,7
2024-05-09T16:24:46.242Z,10
2024-05-09T16:26:46.218Z,8
2024-05-09T16:28:46.186Z,8
2024-05-09T16:30:46.156Z,7
2024-05-09T16:32:46.619Z,7
2024-05-09T16:34:46.145Z,7
2024-05-09T16:36:46.144Z,8
2024-05-09T16:38:46.207Z,8
2024-05-09T16:40:46.770Z,9
2024-05-09T16:42:46.275Z,8
2024-05-09T16:44:46.065Z,7
2024-05-09T16:46:46.246Z,7
2024-05-09T16:48:46.260Z,6
2024-05-09T16:50:46.152Z,9
2024-05-09T16:52:46.277Z,7
2024-05-09T16:54:46.141Z,7
2024-05-09T16:56:46.179Z,7
2024-05-09T16:58:46.123Z,9
2024-05-09T17:00:46.217Z,8
2024-05-09T17:01:18.618Z,8
2024-05-09T17:02:34.432Z,6
2024-05-09T17:04:34.340Z,7
2024-05-09T17:06:34.336Z,7
2024-05-09T17:08:34.148Z,7
2024-05-09T17:10:35.368Z,7
2024-05-09T17:12:34.331Z,7
2024-05-09T17:14:34.197Z,9
2024-05-09T17:17:26.698Z,5
2024-05-09T17:18:51.798Z,6
2024-05-09T17:20:51.667Z,7
2024-05-09T17:22:51.835Z,7
2024-05-09T17:24:51.750Z,6
2024-05-09T17:26:51.655Z,7
2024-05-09T17:28:51.868Z,7
2024-05-09T17:30:51.716Z,9
2024-05-09T17:32:51.755Z,7
2024-05-09T17:34:51.772Z,6
2024-05-09T17:36:51.833Z,7
2024-05-09T17:38:51.712Z,8
2024-05-09T17:40:51.811Z,7
2024-05-09T17:42:51.726Z,8
2024-05-09T17:44:51.651Z,8
2024-05-09T17:46:51.680Z,6
2024-05-09T17:48:51.705Z,8
2024-05-09T17:50:51.636Z,9
2024-05-09T17:52:51.939Z,9
2024-05-09T17:54:51.717Z,9
2024-05-09T17:56:51.713Z,8
2024-05-09T17:58:51.753Z,8
2024-05-09T18:00:51.865Z,8
2024-05-09T18:02:51.726Z,8
2024-05-09T18:04:51.679Z,5
2024-05-09T18:06:51.670Z,5
2024-05-09T18:08:51.868Z,8
2024-05-09T18:10:54.059Z,8
2024-05-09T18:12:51.663Z,7
2024-05-09T18:14:51.747Z,7
2024-05-09T18:16:51.761Z,6
2024-05-09T18:18:51.893Z,8
2024-05-09T18:20:57.263Z,9
2024-05-09T18:22:57.150Z,9
2024-05-09T18:24:57.333Z,6
2024-05-09T18:26:57.225Z,7
2024-05-09T18:28:57.388Z,7
2024-05-09T18:30:57.194Z,7
2024-05-09T18:32:57.303Z,7
2024-05-09T18:34:57.300Z,8
2024-05-09T18:36:57.368Z,8
2024-05-09T18:38:57.328Z,7
2024-05-09T18:40:57.672Z,8
2024-05-09T18:42:57.297Z,9
2024-05-09T18:44:57.252Z,6
2024-05-09T18:46:57.266Z,8
2024-05-09T18:48:57.348Z,8
2024-05-09T18:50:57.196Z,8
2024-05-09T18:52:57.273Z,8
2024-05-09T18:54:57.309Z,9
2024-05-09T18:56:57.209Z,8
2024-05-09T18:58:57.185Z,9
2024-05-09T19:00:59.949Z,8
2024-05-09T19:02:57.601Z,9
2024-05-09T19:04:57.483Z,10
2024-05-09T19:06:57.327Z,9
2024-05-09T19:08:57.283Z,10
2024-05-09T19:10:57.518Z,8
2024-05-09T19:12:57.210Z,8
2024-05-09T19:14:57.198Z,9
2024-05-09T19:16:57.320Z,11
2024-05-09T19:18:57.510Z,9
2024-05-09T19:20:57.216Z,6
2024-05-09T19:22:57.320Z,11
2024-05-09T19:24:57.205Z,10
2024-05-09T19:26:57.262Z,11
2024-05-09T19:28:57.265Z,11
2024-05-09T19:30:57.296Z,11
2024-05-09T19:32:57.442Z,11
2024-05-09T19:34:57.148Z,8
2024-05-09T19:36:57.271Z,11
2024-05-09T19:38:57.392Z,9
2024-05-09T19:40:57.255Z,10
2024-05-09T19:42:57.253Z,9
2024-05-09T19:44:57.311Z,9
2024-05-09T19:46:57.166Z,9
2024-05-09T19:48:57.629Z,8
2024-05-09T19:50:57.342Z,10
2024-05-09T19:52:57.175Z,9
2024-05-09T19:54:57.277Z,10
2024-05-09T19:56:57.167Z,9
2024-05-09T19:58:57.182Z,12
2024-05-09T20:00:57.259Z,9
2024-05-09T20:02:57.379Z,11
2024-05-09T20:04:57.321Z,10
2024-05-09T20:06:57.315Z,8
2024-05-09T20:08:57.269Z,11
2024-05-09T20:10:57.287Z,8
2024-05-09T20:12:57.303Z,9
2024-05-09T20:14:57.177Z,11
2024-05-09T20:16:57.237Z,10
2024-05-09T20:18:57.395Z,8
2024-05-09T20:20:57.283Z,9
2024-05-09T20:22:57.211Z,10
2024-05-09T20:24:57.140Z,11
2024-05-09T20:26:57.166Z,12
2024-05-09T20:28:57.317Z,10
2024-05-09T20:30:57.190Z,12
2024-05-09T20:32:57.218Z,10
2024-05-09T20:34:57.214Z,11
2024-05-09T20:36:57.188Z,9
2024-05-09T20:38:57.201Z,11
2024-05-09T20:40:57.249Z,11
2024-05-09T20:42:57.157Z,9
2024-05-09T20:44:57.100Z,10
2024-05-09T20:46:57.240Z,10
2024-05-09T20:48:57.355Z,10
2024-05-09T20:50:57.295Z,9
2024-05-09T20:52:57.119Z,10
2024-05-09T20:54:57.350Z,11
2024-05-09T20:56:57.148Z,12
2024-05-09T20:58:57.422Z,11
2024-05-09T21:00:57.191Z,7
2024-05-09T21:02:57.302Z,10
2024-05-09T21:04:57.231Z,8
2024-05-09T21:06:57.258Z,11
2024-05-09T21:08:57.097Z,12
2024-05-09T21:10:57.178Z,11
2024-05-09T21:12:57.390Z,11
2024-05-09T21:14:57.097Z,12
2024-05-09T21:16:57.449Z,11
2024-05-09T21:18:57.205Z,10
2024-05-09T21:20:57.098Z,10
2024-05-09T21:22:57.125Z,10
2024-05-09T21:24:57.239Z,10
2024-05-09T21:26:57.217Z,8
2024-05-09T21:28:57.155Z,10
2024-05-09T21:30:57.267Z,10
2024-05-09T21:32:57.280Z,7
2024-05-09T21:34:57.223Z,8
2024-05-09T21:36:57.255Z,8
2024-05-09T21:38:57.119Z,10
2024-05-09T21:40:57.552Z,8
2024-05-09T21:42:57.264Z,9
2024-05-09T21:44:57.177Z,9
2024-05-09T21:46:57.240Z,6
2024-05-09T21:48:57.310Z,9
2024-05-09T21:50:57.081Z,9
2024-05-09T21:52:57.341Z,7
2024-05-09T21:54:57.296Z,9
2024-05-09T21:56:57.093Z,10
2024-05-09T21:58:57.099Z,9
2024-05-09T22:00:57.254Z,10
2024-05-09T22:02:57.195Z,8
2024-05-09T22:04:57.276Z,8
2024-05-09T22:06:57.230Z,10
2024-05-09T22:08:57.171Z,9
2024-05-09T22:10:57.306Z,8
2024-05-09T22:12:58.415Z,9
2024-05-09T22:14:57.210Z,8
2024-05-09T22:16:57.158Z,9
2024-05-09T22:18:57.239Z,9
2024-05-09T22:20:57.116Z,9
2024-05-09T22:22:57.198Z,9
2024-05-09T22:24:57.133Z,7
2024-05-09T22:26:57.181Z,8
2024-05-09T22:28:57.125Z,9
2024-05-09T22:30:57.134Z,7
2024-05-09T22:32:57.174Z,7
2024-05-09T22:34:57.230Z,9
2024-05-09T22:36:57.379Z,8
2024-05-09T22:38:57.107Z,6
2024-05-09T22:40:57.199Z,7
2024-05-09T22:42:57.217Z,7
2024-05-09T22:44:57.184Z,7
2024-05-09T22:46:57.138Z,8
2024-05-09T22:48:57.275Z,6
2024-05-09T22:50:57.081Z,7
2024-05-09T22:52:57.052Z,7
2024-05-09T22:54:57.167Z,7
2024-05-09T22:56:57.103Z,8
2024-05-09T22:59:30.590Z,7
2024-05-09T23:00:42.178Z,5
2024-05-09T23:02:42.091Z,5
2024-05-09T23:04:42.117Z,7
2024-05-09T23:06:43.936Z,6
2024-05-09T23:08:41.964Z,6
2024-05-09T23:10:42.021Z,6
2024-05-09T23:12:42.199Z,7
2024-05-09T23:14:42.006Z,6
2024-05-09T23:16:42.090Z,5
2024-05-09T23:18:42.148Z,7
2024-05-09T23:20:42.249Z,3
2024-05-09T23:22:42.027Z,6
2024-05-09T23:24:42.381Z,7
2024-05-09T23:26:45.062Z,6
2024-05-09T23:28:42.085Z,7
2024-05-09T23:30:42.522Z,6
2024-05-09T23:32:42.108Z,6
2024-05-09T23:34:42.121Z,7
2024-05-09T23:36:42.073Z,6
2024-05-09T23:38:42.744Z,8
2024-05-09T23:40:42.981Z,5
2024-05-09T23:42:43.300Z,7
2024-05-09T23:44:41.984Z,7
2024-05-09T23:46:42.012Z,7
2024-05-09T23:48:42.013Z,7
2024-05-09T23:50:42.094Z,7
2024-05-09T23:52:41.956Z,7
2024-05-09T23:54:42.018Z,5
2024-05-09T23:56:41.979Z,5
2024-05-09T23:57:17.525Z,7
2024-05-09T23:59:04.128Z,7
